Knokke-Heist, Belgium
Current Conditions -  °F | °C
As of 2:55 AM on Tuesday 21 Oct 2014 (Local Time) from EHFS Reporting Station
Broken Clouds Broken Clouds  
Wind Chill: 55°   Ceiling: 3100
Heat Index: 55°   Visibility: 6mi
Dew Point: 54°   Wind: 18mph
Humidity: 94%   Direction: 210°SSW
Pressure: 29.85"   Gusts: NA
Location:  51.35°N, 3.27°E
Report Text: EHFS 210055Z AUTO 21016KT 9999 SCT027/// BKN031/// BKN037///13/12 Q1011
Loading
Personal Weather Stations






























Interactive Weather Map
Tropical Storm Tracking
New forecast layout! Learn more

10-Day Weather Forecast

Advertisements
Track Severe Weather on mobile